sensor_id;sensor_type;location;lat;lon;timestamp;pressure;altitude;pressure_sealevel;temperature;humidity
74270;BME280;62754;48.252;11.654;2023-05-10T00:01:46;95540.38;;;12.86;100.00
74270;BME280;62754;48.252;11.654;2023-05-10T00:04:11;95546.59;;;12.93;100.00
74270;BME280;62754;48.252;11.654;2023-05-10T00:06:37;95542.75;;;12.97;100.00
74270;BME280;62754;48.252;11.654;2023-05-10T00:09:07;95549.50;;;12.98;100.00
74270;BME280;62754;48.252;11.654;2023-05-10T00:11:38;95548.06;;;12.96;100.00
74270;BME280;62754;48.252;11.654;2023-05-10T00:14:06;95550.72;;;12.86;100.00
74270;BME280;62754;48.252;11.654;2023-05-10T00:16:34;95553.66;;;12.91;100.00
74270;BME280;62754;48.252;11.654;2023-05-10T00:19:00;95550.63;;;12.96;100.00
74270;BME280;62754;48.252;11.654;2023-05-10T00:21:25;95545.78;;;12.93;100.00
74270;BME280;62754;48.252;11.654;2023-05-10T00:23:53;95539.47;;;12.95;100.00
74270;BME280;62754;48.252;11.654;2023-05-10T00:26:26;95536.44;;;13.00;100.00
74270;BME280;62754;48.252;11.654;2023-05-10T00:28:57;95537.78;;;13.04;100.00
74270;BME280;62754;48.252;11.654;2023-05-10T00:31:25;95539.84;;;13.00;100.00
74270;BME280;62754;48.252;11.654;2023-05-10T00:33:54;95538.84;;;12.93;100.00
74270;BME280;62754;48.252;11.654;2023-05-10T00:36:19;95528.31;;;12.95;100.00
74270;BME280;62754;48.252;11.654;2023-05-10T00:38:45;95534.47;;;12.94;100.00
74270;BME280;62754;48.252;11.654;2023-05-10T00:41:11;95527.88;;;12.99;100.00
74270;BME280;62754;48.252;11.654;2023-05-10T00:43:37;95529.69;;;13.07;100.00
74270;BME280;62754;48.252;11.654;2023-05-10T00:46:03;95536.44;;;13.00;100.00
74270;BME280;62754;48.252;11.654;2023-05-10T00:48:31;95533.03;;;12.99;100.00
74270;BME280;62754;48.252;11.654;2023-05-10T00:51:01;95525.59;;;12.96;100.00
74270;BME280;62754;48.252;11.654;2023-05-10T00:53:26;95525.28;;;12.99;100.00
74270;BME280;62754;48.252;11.654;2023-05-10T00:55:52;95518.47;;;12.98;100.00
74270;BME280;62754;48.252;11.654;2023-05-10T00:58:20;95527.06;;;12.99;100.00
74270;BME280;62754;48.252;11.654;2023-05-10T01:00:49;95526.50;;;12.87;100.00
74270;BME280;62754;48.252;11.654;2023-05-10T01:03:15;95529.44;;;12.92;100.00
74270;BME280;62754;48.252;11.654;2023-05-10T01:05:41;95519.75;;;12.94;100.00
74270;BME280;62754;48.252;11.654;2023-05-10T01:08:09;95522.06;;;12.97;100.00
74270;BME280;62754;48.252;11.654;2023-05-10T01:10:35;95521.69;;;12.92;100.00
74270;BME280;62754;48.252;11.654;2023-05-10T01:13:01;95527.31;;;12.87;100.00
74270;BME280;62754;48.252;11.654;2023-05-10T01:15:30;95523.47;;;12.92;100.00
74270;BME280;62754;48.252;11.654;2023-05-10T01:17:59;95521.81;;;12.90;100.00
74270;BME280;62754;48.252;11.654;2023-05-10T01:20:28;95515.06;;;12.89;100.00
74270;BME280;62754;48.252;11.654;2023-05-10T01:31:59;95523.25;;;12.85;100.00
74270;BME280;62754;48.252;11.654;2023-05-10T01:34:34;95527.09;;;12.81;100.00
74270;BME280;62754;48.252;11.654;2023-05-10T01:37:16;95524.66;;;12.79;100.00
74270;BME280;62754;48.252;11.654;2023-05-10T01:39:58;95518.66;;;12.79;100.00
74270;BME280;62754;48.252;11.654;2023-05-10T01:42:31;95516.44;;;12.84;100.00
74270;BME280;62754;48.252;11.654;2023-05-10T01:45:22;95528.56;;;12.83;100.00
74270;BME280;62754;48.252;11.654;2023-05-10T01:48:08;95515.50;;;12.85;100.00
74270;BME280;62754;48.252;11.654;2023-05-10T01:50:41;95521.81;;;12.90;100.00
74270;BME280;62754;48.252;11.654;2023-05-10T01:53:12;95522.81;;;12.89;100.00
74270;BME280;62754;48.252;11.654;2023-05-10T01:55:46;95521.19;;;12.88;100.00
74270;BME280;62754;48.252;11.654;2023-05-10T01:58:22;95526.16;;;12.82;100.00
74270;BME280;62754;48.252;11.654;2023-05-10T02:00:49;95524.66;;;12.79;100.00
74270;BME280;62754;48.252;11.654;2023-05-10T02:03:18;95514.50;;;12.86;100.00
74270;BME280;62754;48.252;11.654;2023-05-10T02:05:45;95525.97;;;12.83;100.00
74270;BME280;62754;48.252;11.654;2023-05-10T02:08:16;95526.09;;;12.74;100.00
74270;BME280;62754;48.252;11.654;2023-05-10T02:10:47;95522.50;;;12.75;100.00
74270;BME280;62754;48.252;11.654;2023-05-10T02:13:16;95524.44;;;12.73;100.00
74270;BME280;62754;48.252;11.654;2023-05-10T02:15:42;95523.50;;;12.74;100.00
74270;BME280;62754;48.252;11.654;2023-05-10T02:18:12;95522.81;;;12.72;100.00
74270;BME280;62754;48.252;11.654;2023-05-10T02:20:39;95526.09;;;12.74;100.00
74270;BME280;62754;48.252;11.654;2023-05-10T02:23:09;95525.84;;;12.67;100.00
74270;BME280;62754;48.252;11.654;2023-05-10T02:25:38;95527.63;;;12.67;100.00
74270;BME280;62754;48.252;11.654;2023-05-10T02:28:05;95525.41;;;12.72;100.00
74270;BME280;62754;48.252;11.654;2023-05-10T02:30:35;95519.06;;;12.66;100.00
74270;BME280;62754;48.252;11.654;2023-05-10T02:33:03;95527.47;;;12.68;100.00
74270;BME280;62754;48.252;11.654;2023-05-10T02:35:33;95528.81;;;12.72;100.00
74270;BME280;62754;48.252;11.654;2023-05-10T02:38:03;95525.56;;;12.70;100.00
74270;BME280;62754;48.252;11.654;2023-05-10T02:40:30;95525.72;;;12.69;100.00
74270;BME280;62754;48.252;11.654;2023-05-10T02:42:57;95523.94;;;12.69;100.00
74270;BME280;62754;48.252;11.654;2023-05-10T02:45:28;95524.25;;;12.66;100.00
74270;BME280;62754;48.252;11.654;2023-05-10T02:47:55;95523.88;;;12.61;100.00
74270;BME280;62754;48.252;11.654;2023-05-10T02:50:24;95520.47;;;12.61;100.00
74270;BME280;62754;48.252;11.654;2023-05-10T02:52:52;95528.22;;;12.61;100.00
74270;BME280;62754;48.252;11.654;2023-05-10T02:55:25;95524.19;;;12.58;100.00
74270;BME280;62754;48.252;11.654;2023-05-10T02:58:00;95528.88;;;12.63;100.00
74270;BME280;62754;48.252;11.654;2023-05-10T03:00:28;95528.34;;;12.59;100.00
74270;BME280;62754;48.252;11.654;2023-05-10T03:02:54;95530.59;;;12.54;100.00
74270;BME280;62754;48.252;11.654;2023-05-10T03:05:22;95528.00;;;12.54;100.00
74270;BME280;62754;48.252;11.654;2023-05-10T03:07:52;95527.78;;;12.48;100.00
74270;BME280;62754;48.252;11.654;2023-05-10T03:10:22;95533.00;;;12.56;100.00
74270;BME280;62754;48.252;11.654;2023-05-10T03:15:37;95532.50;;;12.52;100.00
74270;BME280;62754;48.252;11.654;2023-05-10T03:18:10;95538.50;;;12.53;100.00
74270;BME280;62754;48.252;11.654;2023-05-10T03:20:48;95536.59;;;12.55;100.00
74270;BME280;62754;48.252;11.654;2023-05-10T03:25:50;95544.59;;;12.52;100.00
74270;BME280;62754;48.252;11.654;2023-05-10T03:28:18;95544.47;;;12.53;100.00
74270;BME280;62754;48.252;11.654;2023-05-10T03:30:46;95545.13;;;12.55;100.00
74270;BME280;62754;48.252;11.654;2023-05-10T03:33:12;95548.31;;;12.49;100.00
74270;BME280;62754;48.252;11.654;2023-05-10T03:35:41;95548.19;;;12.51;100.00
74270;BME280;62754;48.252;11.654;2023-05-10T03:38:09;95552.34;;;12.52;100.00
74270;BME280;62754;48.252;11.654;2023-05-10T03:40:37;95547.69;;;12.55;100.00
74270;BME280;62754;48.252;11.654;2023-05-10T03:43:03;95549.78;;;12.52;100.00
74270;BME280;62754;48.252;11.654;2023-05-10T03:45:34;95564.94;;;12.47;100.00
74270;BME280;62754;48.252;11.654;2023-05-10T03:48:02;95551.03;;;12.48;100.00
74270;BME280;62754;48.252;11.654;2023-05-10T03:50:32;95557.09;;;12.56;100.00
74270;BME280;62754;48.252;11.654;2023-05-10T03:52:58;95554.44;;;12.48;100.00
74270;BME280;62754;48.252;11.654;2023-05-10T03:55:26;95547.78;;;12.46;100.00
74270;BME280;62754;48.252;11.654;2023-05-10T03:57:54;95559.66;;;12.56;100.00
74270;BME280;62754;48.252;11.654;2023-05-10T04:00:22;95555.63;;;12.54;100.00
74270;BME280;62754;48.252;11.654;2023-05-10T04:02:48;95558.78;;;12.48;100.00
74270;BME280;62754;48.252;11.654;2023-05-10T04:05:13;95563.94;;;12.48;100.00
74270;BME280;62754;48.252;11.654;2023-05-10T04:07:39;95558.94;;;12.46;100.00
74270;BME280;62754;48.252;11.654;2023-05-10T04:10:05;95559.97;;;12.53;100.00
74270;BME280;62754;48.252;11.654;2023-05-10T04:12:33;95559.59;;;12.48;100.00
74270;BME280;62754;48.252;11.654;2023-05-10T04:14:59;95559.16;;;12.53;100.00
74270;BME280;62754;48.252;11.654;2023-05-10T04:17:25;95560.63;;;12.55;100.00
74270;BME280;62754;48.252;11.654;2023-05-10T04:19:53;95561.09;;;12.51;100.00
74270;BME280;62754;48.252;11.654;2023-05-10T04:22:19;95564.31;;;12.53;100.00
74270;BME280;62754;48.252;11.654;2023-05-10T04:24:47;95566.91;;;12.53;100.00
74270;BME280;62754;48.252;11.654;2023-05-10T04:27:17;95572.03;;;12.62;100.00
74270;BME280;62754;48.252;11.654;2023-05-10T04:29:45;95568.25;;;12.57;100.00
74270;BME280;62754;48.252;11.654;2023-05-10T04:32:13;95564.41;;;12.61;100.00
74270;BME280;62754;48.252;11.654;2023-05-10T04:34:41;95563.22;;;12.55;100.00
74270;BME280;62754;48.252;11.654;2023-05-10T04:37:07;95562.94;;;12.58;100.00
74270;BME280;62754;48.252;11.654;2023-05-10T04:39:35;95568.19;;;12.66;100.00
74270;BME280;62754;48.252;11.654;2023-05-10T04:42:04;95580.03;;;12.59;100.00
74270;BME280;62754;48.252;11.654;2023-05-10T04:44:30;95578.16;;;12.61;100.00
74270;BME280;62754;48.252;11.654;2023-05-10T04:46:55;95574.59;;;12.62;100.00
74270;BME280;62754;48.252;11.654;2023-05-10T04:49:26;95575.63;;;12.52;100.00
74270;BME280;62754;48.252;11.654;2023-05-10T04:51:54;95574.34;;;12.56;100.00
74270;BME280;62754;48.252;11.654;2023-05-10T04:54:23;95580.06;;;12.41;100.00
74270;BME280;62754;48.252;11.654;2023-05-10T04:56:49;95579.19;;;12.51;100.00
74270;BME280;62754;48.252;11.654;2023-05-10T04:59:20;95581.91;;;12.49;100.00
74270;BME280;62754;48.252;11.654;2023-05-10T05:01:48;95582.94;;;12.56;100.00
74270;BME280;62754;48.252;11.654;2023-05-10T05:04:15;95590.75;;;12.47;100.00
74270;BME280;62754;48.252;11.654;2023-05-10T05:06:44;95593.47;;;12.45;100.00
74270;BME280;62754;48.252;11.654;2023-05-10T05:09:12;95595.94;;;12.47;100.00
74270;BME280;62754;48.252;11.654;2023-05-10T05:11:40;95593.63;;;12.43;100.00
74270;BME280;62754;48.252;11.654;2023-05-10T05:14:06;95606.53;;;12.43;100.00
74270;BME280;62754;48.252;11.654;2023-05-10T05:16:34;95612.38;;;12.46;100.00
74270;BME280;62754;48.252;11.654;2023-05-10T05:19:00;95612.25;;;12.47;100.00
74270;BME280;62754;48.252;11.654;2023-05-10T05:21:25;95612.69;;;12.43;99.18
74270;BME280;62754;48.252;11.654;2023-05-10T05:23:51;95612.81;;;12.41;100.00
74270;BME280;62754;48.252;11.654;2023-05-10T05:26:17;95614.78;;;12.29;98.53
74270;BME280;62754;48.252;11.654;2023-05-10T05:28:43;95618.91;;;12.22;99.66
74270;BME280;62754;48.252;11.654;2023-05-10T05:31:08;95616.44;;;12.30;100.00
74270;BME280;62754;48.252;11.654;2023-05-10T05:33:34;95627.06;;;12.27;98.99
74270;BME280;62754;48.252;11.654;2023-05-10T05:36:02;95625.81;;;12.31;99.37
74270;BME280;62754;48.252;11.654;2023-05-10T05:38:30;95629.91;;;12.24;97.87
74270;BME280;62754;48.252;11.654;2023-05-10T05:40:56;95637.28;;;12.19;97.11
74270;BME280;62754;48.252;11.654;2023-05-10T05:43:22;95636.66;;;12.08;97.59
74270;BME280;62754;48.252;11.654;2023-05-10T05:45:52;95644.78;;;12.13;99.51
74270;BME280;62754;48.252;11.654;2023-05-10T05:48:17;95642.19;;;12.13;97.85
74270;BME280;62754;48.252;11.654;2023-05-10T05:50:43;95651.88;;;12.11;98.57
74270;BME280;62754;48.252;11.654;2023-05-10T05:53:09;95657.75;;;12.03;98.57
74270;BME280;62754;48.252;11.654;2023-05-10T05:55:35;95657.13;;;12.19;97.82
74270;BME280;62754;48.252;11.654;2023-05-10T05:58:02;95652.38;;;12.14;98.74
74270;BME280;62754;48.252;11.654;2023-05-10T06:00:28;95657.06;;;12.28;100.00
74270;BME280;62754;48.252;11.654;2023-05-10T06:02:56;95661.16;;;12.31;98.50
74270;BME280;62754;48.252;11.654;2023-05-10T06:05:24;95663.97;;;12.37;98.12
74270;BME280;62754;48.252;11.654;2023-05-10T06:07:50;95666.69;;;12.36;98.48
74270;BME280;62754;48.252;11.654;2023-05-10T06:10:18;95671.44;;;12.40;99.91
74270;BME280;62754;48.252;11.654;2023-05-10T06:12:44;95676.13;;;12.55;98.42
74270;BME280;62754;48.252;11.654;2023-05-10T06:15:13;95676.25;;;12.53;97.09
74270;BME280;62754;48.252;11.654;2023-05-10T06:17:41;95679.50;;;12.55;98.80
74270;BME280;62754;48.252;11.654;2023-05-10T06:20:13;95682.69;;;12.67;97.01
74270;BME280;62754;48.252;11.654;2023-05-10T06:22:38;95691.75;;;12.53;96.83
74270;BME280;62754;48.252;11.654;2023-05-10T06:25:10;95698.03;;;12.51;95.63
74270;BME280;62754;48.252;11.654;2023-05-10T06:27:35;95694.22;;;12.55;95.48
74270;BME280;62754;48.252;11.654;2023-05-10T06:30:04;95699.28;;;12.47;97.75
74270;BME280;62754;48.252;11.654;2023-05-10T06:32:32;95708.75;;;12.56;96.00
74270;BME280;62754;48.252;11.654;2023-05-10T06:35:00;95700.72;;;12.59;96.86
74270;BME280;62754;48.252;11.654;2023-05-10T06:37:28;95708.81;;;12.46;95.88
74270;BME280;62754;48.252;11.654;2023-05-10T06:39:56;95706.31;;;12.54;95.78
74270;BME280;62754;48.252;11.654;2023-05-10T06:42:22;95703.63;;;12.73;93.82
74270;BME280;62754;48.252;11.654;2023-05-10T06:44:50;95706.53;;;12.61;93.99
74270;BME280;62754;48.252;11.654;2023-05-10T06:47:18;95711.00;;;12.86;93.09
74270;BME280;62754;48.252;11.654;2023-05-10T06:49:46;95714.41;;;12.86;94.02
74270;BME280;62754;48.252;11.654;2023-05-10T06:52:12;95704.41;;;13.01;94.72
74270;BME280;62754;48.252;11.654;2023-05-10T06:54:40;95710.59;;;13.08;94.28
74270;BME280;62754;48.252;11.654;2023-05-10T06:57:10;95714.78;;;13.19;93.81
74270;BME280;62754;48.252;11.654;2023-05-10T06:59:38;95709.97;;;13.24;92.82
74270;BME280;62754;48.252;11.654;2023-05-10T07:02:06;95718.69;;;13.23;92.80
74270;BME280;62754;48.252;11.654;2023-05-10T07:04:32;95711.94;;;13.48;90.83
74270;BME280;62754;48.252;11.654;2023-05-10T07:06:58;95715.41;;;13.56;90.53
74270;BME280;62754;48.252;11.654;2023-05-10T07:09:26;95717.66;;;13.51;91.86
74270;BME280;62754;48.252;11.654;2023-05-10T07:11:52;95722.88;;;13.59;90.08
74270;BME280;62754;48.252;11.654;2023-05-10T07:14:22;95717.41;;;13.62;90.70
74270;BME280;62754;48.252;11.654;2023-05-10T07:16:48;95721.22;;;13.76;89.25
74270;BME280;62754;48.252;11.654;2023-05-10T07:19:18;95722.00;;;13.51;89.34
74270;BME280;62754;48.252;11.654;2023-05-10T07:21:46;95724.81;;;13.57;91.62
74270;BME280;62754;48.252;11.654;2023-05-10T07:24:12;95730.44;;;13.53;90.15
74270;BME280;62754;48.252;11.654;2023-05-10T07:26:40;95724.25;;;13.71;89.28
74270;BME280;62754;48.252;11.654;2023-05-10T07:29:06;95733.38;;;13.58;89.16
74270;BME280;62754;48.252;11.654;2023-05-10T07:31:34;95735.81;;;13.77;89.02
74270;BME280;62754;48.252;11.654;2023-05-10T07:34:02;95726.88;;;13.97;87.98
74270;BME280;62754;48.252;11.654;2023-05-10T07:36:30;95726.00;;;14.14;87.00
74270;BME280;62754;48.252;11.654;2023-05-10T07:38:55;95735.50;;;14.31;86.49
74270;BME280;62754;48.252;11.654;2023-05-10T07:41:21;95724.03;;;14.76;85.95
74270;BME280;62754;48.252;11.654;2023-05-10T07:43:47;95730.75;;;14.95;84.72
74270;BME280;62754;48.252;11.654;2023-05-10T07:46:12;95729.81;;;15.12;83.29
74270;BME280;62754;48.252;11.654;2023-05-10T07:48:38;95725.69;;;14.85;84.48
74270;BME280;62754;48.252;11.654;2023-05-10T07:51:04;95726.94;;;14.73;82.39
74270;BME280;62754;48.252;11.654;2023-05-10T07:53:32;95736.06;;;14.43;84.14
74270;BME280;62754;48.252;11.654;2023-05-10T07:56:25;95736.03;;;14.17;84.03
74270;BME280;62754;48.252;11.654;2023-05-10T07:58:54;95736.69;;;14.37;84.37
74270;BME280;62754;48.252;11.654;2023-05-10T08:01:19;95739.03;;;14.56;83.39
74270;BME280;62754;48.252;11.654;2023-05-10T08:03:48;95735.50;;;15.23;82.24
74270;BME280;62754;48.252;11.654;2023-05-10T08:06:20;95737.38;;;15.71;81.24
74270;BME280;62754;48.252;11.654;2023-05-10T08:08:47;95735.75;;;15.62;80.31
74270;BME280;62754;48.252;11.654;2023-05-10T08:11:18;95736.38;;;15.64;78.41
74270;BME280;62754;48.252;11.654;2023-05-10T08:13:48;95733.63;;;15.50;76.33
74270;BME280;62754;48.252;11.654;2023-05-10T08:16:21;95737.34;;;15.47;79.58
74270;BME280;62754;48.252;11.654;2023-05-10T08:18:47;95732.00;;;15.65;77.06
74270;BME280;62754;48.252;11.654;2023-05-10T08:21:14;95731.03;;;15.74;76.30
74270;BME280;62754;48.252;11.654;2023-05-10T08:23:42;95727.78;;;15.72;76.19
74270;BME280;62754;48.252;11.654;2023-05-10T08:26:10;95739.97;;;15.71;76.72
74270;BME280;62754;48.252;11.654;2023-05-10T08:28:38;95745.81;;;15.57;76.49
74270;BME280;62754;48.252;11.654;2023-05-10T08:31:05;95746.56;;;15.34;78.52
74270;BME280;62754;48.252;11.654;2023-05-10T08:33:33;95752.72;;;15.24;79.24
74270;BME280;62754;48.252;11.654;2023-05-10T08:36:00;95746.31;;;14.95;75.20
74270;BME280;62754;48.252;11.654;2023-05-10T08:38:31;95749.66;;;14.71;76.68
74270;BME280;62754;48.252;11.654;2023-05-10T08:41:05;95747.41;;;14.84;76.04
74270;BME280;62754;48.252;11.654;2023-05-10T08:43:33;95754.81;;;14.63;77.84
74270;BME280;62754;48.252;11.654;2023-05-10T08:46:03;95747.59;;;14.83;78.07
74270;BME280;62754;48.252;11.654;2023-05-10T08:48:33;95751.41;;;15.12;77.07
74270;BME280;62754;48.252;11.654;2023-05-10T08:51:02;95743.34;;;15.64;76.23
74270;BME280;62754;48.252;11.654;2023-05-10T08:53:32;95751.16;;;15.72;75.96
74270;BME280;62754;48.252;11.654;2023-05-10T08:56:03;95745.94;;;15.96;73.18
74270;BME280;62754;48.252;11.654;2023-05-10T08:58:33;95748.22;;;17.09;71.26
74270;BME280;62754;48.252;11.654;2023-05-10T09:01:02;95745.88;;;17.76;70.25
74270;BME280;62754;48.252;11.654;2023-05-10T09:03:27;95743.31;;;17.45;67.65
74270;BME280;62754;48.252;11.654;2023-05-10T09:05:56;95749.66;;;16.81;68.15
74270;BME280;62754;48.252;11.654;2023-05-10T09:08:24;95753.41;;;17.40;66.65
74270;BME280;62754;48.252;11.654;2023-05-10T09:10:49;95749.22;;;17.62;66.02
74270;BME280;62754;48.252;11.654;2023-05-10T09:13:16;95753.97;;;18.33;66.20
74270;BME280;62754;48.252;11.654;2023-05-10T09:15:45;95752.06;;;18.27;65.22
74270;BME280;62754;48.252;11.654;2023-05-10T09:18:13;95752.50;;;18.68;64.79
74270;BME280;62754;48.252;11.654;2023-05-10T09:20:44;95757.41;;;19.85;57.42
74270;BME280;62754;48.252;11.654;2023-05-10T09:23:14;95747.91;;;19.57;59.25
74270;BME280;62754;48.252;11.654;2023-05-10T09:25:45;95748.41;;;19.31;58.29
74270;BME280;62754;48.252;11.654;2023-05-10T09:28:13;95754.97;;;18.47;59.66
74270;BME280;62754;48.252;11.654;2023-05-10T09:30:41;95755.41;;;17.84;61.03
74270;BME280;62754;48.252;11.654;2023-05-10T09:33:07;95761.78;;;16.97;64.95
74270;BME280;62754;48.252;11.654;2023-05-10T09:35:35;95763.41;;;16.43;65.42
74270;BME280;62754;48.252;11.654;2023-05-10T09:38:04;95759.91;;;16.11;68.44
74270;BME280;62754;48.252;11.654;2023-05-10T09:40:31;95769.19;;;15.82;69.55
74270;BME280;62754;48.252;11.654;2023-05-10T09:43:04;95763.66;;;15.68;68.95
74270;BME280;62754;48.252;11.654;2023-05-10T09:45:34;95757.00;;;15.74;67.61
74270;BME280;62754;48.252;11.654;2023-05-10T09:48:02;95766.09;;;15.78;69.19
74270;BME280;62754;48.252;11.654;2023-05-10T09:50:29;95752.78;;;15.97;67.39
74270;BME280;62754;48.252;11.654;2023-05-10T09:52:59;95757.97;;;16.13;68.85
74270;BME280;62754;48.252;11.654;2023-05-10T09:55:43;95757.97;;;15.97;68.35
74270;BME280;62754;48.252;11.654;2023-05-10T09:58:08;95752.09;;;16.11;70.11
74270;BME280;62754;48.252;11.654;2023-05-10T10:00:41;95752.31;;;15.86;68.84
74270;BME280;62754;48.252;11.654;2023-05-10T10:03:12;95747.59;;;15.97;69.16
74270;BME280;62754;48.252;11.654;2023-05-10T10:05:42;95758.47;;;15.77;71.33
74270;BME280;62754;48.252;11.654;2023-05-10T10:08:08;95761.38;;;15.57;71.99
74270;BME280;62754;48.252;11.654;2023-05-10T10:10:37;95754.72;;;15.55;72.38
74270;BME280;62754;48.252;11.654;2023-05-10T10:13:03;95761.06;;;15.52;74.23
74270;BME280;62754;48.252;11.654;2023-05-10T10:15:34;95754.41;;;15.66;74.15
74270;BME280;62754;48.252;11.654;2023-05-10T10:18:01;95758.94;;;15.88;75.04
74270;BME280;62754;48.252;11.654;2023-05-10T10:20:29;95749.63;;;16.26;72.71
74270;BME280;62754;48.252;11.654;2023-05-10T10:22:55;95752.94;;;16.75;70.51
74270;BME280;62754;48.252;11.654;2023-05-10T10:25:21;95753.97;;;17.28;71.88
74270;BME280;62754;48.252;11.654;2023-05-10T10:35:49;95747.97;;;17.95;66.19
74270;BME280;62754;48.252;11.654;2023-05-10T10:38:18;95751.69;;;17.78;65.41
74270;BME280;62754;48.252;11.654;2023-05-10T10:40:47;95738.78;;;17.62;65.89
74270;BME280;62754;48.252;11.654;2023-05-10T10:43:28;95741.63;;;17.30;67.36
74270;BME280;62754;48.252;11.654;2023-05-10T10:48:40;95740.34;;;17.26;67.47
74270;BME280;62754;48.252;11.654;2023-05-10T10:51:11;95739.50;;;17.02;67.81
74270;BME280;62754;48.252;11.654;2023-05-10T10:53:39;95737.81;;;17.09;67.81
74270;BME280;62754;48.252;11.654;2023-05-10T10:56:09;95740.53;;;17.16;66.85
74270;BME280;62754;48.252;11.654;2023-05-10T10:58:39;95731.50;;;17.04;67.04
74270;BME280;62754;48.252;11.654;2023-05-10T11:01:16;95736.66;;;16.81;65.47
74270;BME280;62754;48.252;11.654;2023-05-10T11:04:16;95727.78;;;16.67;66.95
74270;BME280;62754;48.252;11.654;2023-05-10T11:06:40;95729.72;;;16.65;67.50
74270;BME280;62754;48.252;11.654;2023-05-10T11:09:10;95732.34;;;16.57;69.25
74270;BME280;62754;48.252;11.654;2023-05-10T11:11:48;95722.97;;;16.87;68.75
74270;BME280;62754;48.252;11.654;2023-05-10T11:14:14;95725.69;;;16.94;68.36
74270;BME280;62754;48.252;11.654;2023-05-10T11:16:47;95729.63;;;17.21;66.41
74270;BME280;62754;48.252;11.654;2023-05-10T11:19:16;95729.06;;;17.56;65.20
74270;BME280;62754;48.252;11.654;2023-05-10T11:24:16;95730.69;;;19.26;61.44
74270;BME280;62754;48.252;11.654;2023-05-10T11:26:45;95733.19;;;19.34;59.24
74270;BME280;62754;48.252;11.654;2023-05-10T11:29:13;95739.47;;;19.04;60.38
74270;BME280;62754;48.252;11.654;2023-05-10T11:31:43;95743.38;;;18.49;62.04
74270;BME280;62754;48.252;11.654;2023-05-10T11:34:11;95740.66;;;17.76;62.34
74270;BME280;62754;48.252;11.654;2023-05-10T11:36:41;95737.44;;;17.21;66.28
74270;BME280;62754;48.252;11.654;2023-05-10T11:39:07;95743.38;;;17.06;65.10
74270;BME280;62754;48.252;11.654;2023-05-10T11:41:33;95746.09;;;16.82;67.81
74270;BME280;62754;48.252;11.654;2023-05-10T11:44:16;95739.84;;;16.44;69.03
74270;BME280;62754;48.252;11.654;2023-05-10T11:46:44;95747.72;;;16.20;70.86
74270;BME280;62754;48.252;11.654;2023-05-10T11:49:10;95747.25;;;16.00;71.40
74270;BME280;62754;48.252;11.654;2023-05-10T11:51:39;95749.69;;;15.94;73.64
74270;BME280;62754;48.252;11.654;2023-05-10T11:54:10;95749.22;;;15.90;73.61
74270;BME280;62754;48.252;11.654;2023-05-10T11:56:40;95750.66;;;15.77;68.55
74270;BME280;62754;48.252;11.654;2023-05-10T11:59:06;95753.94;;;15.87;68.28
74270;BME280;62754;48.252;11.654;2023-05-10T12:01:34;95757.97;;;15.81;69.38
74270;BME280;62754;48.252;11.654;2023-05-10T12:04:03;95760.56;;;15.73;68.71
74270;BME280;62754;48.252;11.654;2023-05-10T12:06:33;95759.13;;;15.79;69.18
74270;BME280;62754;48.252;11.654;2023-05-10T12:09:05;95760.09;;;15.78;69.36
74270;BME280;62754;48.252;11.654;2023-05-10T12:11:31;95764.78;;;15.58;68.32
74270;BME280;62754;48.252;11.654;2023-05-10T12:13:59;95769.66;;;15.61;68.82
74270;BME280;62754;48.252;11.654;2023-05-10T12:16:28;95773.50;;;15.49;69.33
74270;BME280;62754;48.252;11.654;2023-05-10T12:18:57;95770.34;;;15.71;70.88
74270;BME280;62754;48.252;11.654;2023-05-10T12:21:28;95778.75;;;15.65;72.61
74270;BME280;62754;48.252;11.654;2023-05-10T12:23:56;95774.28;;;15.33;70.88
74270;BME280;62754;48.252;11.654;2023-05-10T12:26:27;95782.22;;;15.15;69.21
74270;BME280;62754;48.252;11.654;2023-05-10T12:29:11;95778.44;;;15.10;68.88
74270;BME280;62754;48.252;11.654;2023-05-10T12:31:58;95793.97;;;14.86;70.84
74270;BME280;62754;48.252;11.654;2023-05-10T12:34:24;95791.78;;;14.73;71.65
74270;BME280;62754;48.252;11.654;2023-05-10T12:36:59;95805.66;;;14.64;71.63
74270;BME280;62754;48.252;11.654;2023-05-10T12:39:26;95812.41;;;14.49;70.43
74270;BME280;62754;48.252;11.654;2023-05-10T12:41:54;95812.19;;;14.16;71.75
74270;BME280;62754;48.252;11.654;2023-05-10T12:44:22;95820.44;;;13.76;73.13
74270;BME280;62754;48.252;11.654;2023-05-10T12:46:50;95821.63;;;13.64;74.64
74270;BME280;62754;48.252;11.654;2023-05-10T12:49:16;95822.50;;;13.55;76.50
74270;BME280;62754;48.252;11.654;2023-05-10T12:51:43;95819.03;;;13.47;76.26
74270;BME280;62754;48.252;11.654;2023-05-10T12:54:14;95825.03;;;13.47;77.86
74270;BME280;62754;48.252;11.654;2023-05-10T12:56:42;95818.63;;;13.59;77.20
74270;BME280;62754;48.252;11.654;2023-05-10T12:59:11;95826.41;;;13.42;79.05
74270;BME280;62754;48.252;11.654;2023-05-10T13:01:39;95825.88;;;13.38;79.25
74270;BME280;62754;48.252;11.654;2023-05-10T13:04:05;95828.25;;;13.31;79.12
74270;BME280;62754;48.252;11.654;2023-05-10T13:06:30;95823.59;;;13.35;80.10
74270;BME280;62754;48.252;11.654;2023-05-10T13:08:56;95825.38;;;13.34;80.87
74270;BME280;62754;48.252;11.654;2023-05-10T13:11:24;95820.38;;;13.51;80.53
74270;BME280;62754;48.252;11.654;2023-05-10T13:13:50;95823.16;;;13.40;80.52
74270;BME280;62754;48.252;11.654;2023-05-10T13:16:20;95821.97;;;13.52;81.10
74270;BME280;62754;48.252;11.654;2023-05-10T13:18:46;95817.09;;;13.31;82.03
74270;BME280;62754;48.252;11.654;2023-05-10T13:21:17;95826.88;;;13.55;83.25